Аэропорт: Бухта Провидения. Провидения

ICAO: UHMD

METAR:
2021-01-20 03:00:00
UHMD 200300Z 02003MPS 9999 SCT026 M20/M23 Q1012 RMK QBB800 QFE759/1011
METAR:
Информация по данной станции не доступна